createdAt,value
2023-01-17T00:00:24.505Z,7.55
2023-01-17T00:04:45.097Z,7.97
2023-01-17T00:09:06.791Z,8.18
2023-01-17T00:13:09.583Z,6.13
2023-01-17T00:17:12.448Z,6.63
2023-01-17T00:21:31.986Z,7.28
2023-01-17T00:25:56.067Z,6.53
2023-01-17T00:29:57.835Z,6.03
2023-01-17T00:33:59.826Z,7.45
2023-01-17T00:38:04.044Z,6.93
2023-01-17T00:42:07.105Z,6.68
2023-01-17T00:46:27.486Z,8.32
2023-01-17T00:50:48.200Z,7.22
2023-01-17T00:55:08.701Z,7.72
2023-01-17T00:59:30.182Z,8.38
2023-01-17T01:03:50.821Z,8.10
2023-01-17T01:08:11.014Z,7.63
2023-01-17T01:12:32.369Z,7.65
2023-01-17T01:16:54.129Z,7.88
2023-01-17T01:21:14.438Z,7.00
2023-01-17T01:25:34.704Z,7.25
2023-01-17T01:29:57.079Z,7.68
2023-01-17T01:34:01.317Z,6.22
2023-01-17T01:38:04.780Z,5.55
2023-01-17T01:42:14.331Z,5.78
2023-01-17T01:46:21.083Z,4.20
2023-01-17T01:50:25.800Z,3.92
2023-01-17T01:54:32.857Z,4.07
2023-01-17T01:58:37.727Z,3.92
2023-01-17T02:02:40.559Z,3.72
2023-01-17T02:06:48.234Z,4.03
2023-01-17T02:10:51.685Z,4.07
2023-01-17T02:14:54.392Z,4.18
2023-01-17T02:19:06.762Z,5.03
2023-01-17T02:23:32.907Z,4.97
2023-01-17T02:27:51.358Z,5.20
2023-01-17T02:32:03.181Z,6.07
2023-01-17T02:36:11.115Z,5.55
2023-01-17T02:40:18.570Z,5.85
2023-01-17T02:44:22.735Z,5.97
2023-01-17T02:48:31.603Z,5.80
2023-01-17T02:52:49.354Z,5.45
2023-01-17T02:57:02.342Z,5.53
2023-01-17T03:01:18.273Z,6.28
2023-01-17T03:05:28.243Z,6.75
2023-01-17T03:09:32.364Z,6.85
2023-01-17T03:13:35.133Z,7.15
2023-01-17T03:17:39.221Z,6.35
2023-01-17T03:21:43.682Z,6.43
2023-01-17T03:25:46.435Z,6.18
2023-01-17T03:29:49.182Z,6.47
2023-01-17T03:33:52.044Z,6.28
2023-01-17T03:37:56.340Z,6.88
2023-01-17T03:41:59.127Z,6.65
2023-01-17T03:46:06.917Z,6.10
2023-01-17T03:50:11.429Z,5.25
2023-01-17T03:54:15.629Z,4.70
2023-01-17T03:58:18.578Z,3.13
2023-01-17T04:02:21.407Z,2.35
2023-01-17T04:06:24.214Z,1.67
2023-01-17T04:10:28.381Z,1.85
2023-01-17T04:14:31.205Z,0.90
2023-01-17T04:18:34.012Z,0.50
2023-01-17T04:22:36.757Z,0.60
2023-01-17T04:26:40.896Z,0.80
2023-01-17T04:30:43.650Z,1.63
2023-01-17T04:34:46.393Z,1.63
2023-01-17T04:38:49.120Z,1.75
2023-01-17T04:42:54.158Z,2.17
2023-01-17T04:46:56.916Z,2.25
2023-01-17T04:51:02.804Z,2.58
2023-01-17T04:55:06.451Z,2.53
2023-01-17T04:59:10.516Z,2.95
2023-01-17T05:03:13.269Z,2.72
2023-01-17T05:07:16.165Z,2.88
2023-01-17T05:11:18.908Z,3.60
2023-01-17T05:15:23.132Z,3.60
2023-01-17T05:19:27.500Z,3.80
2023-01-17T05:23:30.477Z,3.83
2023-01-17T05:27:33.258Z,3.65
2023-01-17T05:31:37.599Z,4.10
2023-01-17T05:35:40.434Z,4.25
2023-01-17T05:39:43.299Z,4.00
2023-01-17T05:43:46.220Z,4.03
2023-01-17T05:47:52.824Z,3.28
2023-01-17T05:51:55.658Z,3.28
2023-01-17T05:55:58.455Z,2.90
2023-01-17T06:00:01.184Z,3.33
2023-01-17T06:04:05.439Z,3.75
2023-01-17T06:08:08.504Z,4.10
2023-01-17T06:12:11.271Z,4.70
2023-01-17T06:16:14.132Z,5.38
2023-01-17T06:20:18.470Z,6.20
2023-01-17T06:24:21.210Z,5.78
2023-01-17T06:28:24.844Z,6.13
2023-01-17T06:32:27.572Z,6.55
2023-01-17T06:36:33.357Z,6.75
2023-01-17T21:16:45.850Z,10.02
2023-01-17T21:20:49.323Z,8.68
2023-01-17T21:24:54.111Z,10.27
2023-01-17T21:29:02.021Z,10.18
2023-01-17T21:33:08.909Z,10.05
2023-01-17T21:37:27.043Z,11.75
2023-01-17T21:41:38.947Z,8.27
2023-01-17T21:45:46.410Z,9.68
2023-01-17T21:49:58.560Z,8.77
2023-01-17T21:54:09.119Z,8.73
2023-01-17T21:58:32.261Z,9.43
2023-01-17T22:02:35.282Z,11.15
2023-01-17T22:06:39.601Z,9.40
2023-01-17T22:10:45.617Z,8.93
2023-01-17T22:14:51.205Z,9.43
2023-01-17T22:18:54.559Z,10.07
2023-01-17T22:22:59.178Z,11.38
2023-01-17T22:27:02.118Z,9.57
2023-01-17T22:31:10.609Z,9.30
2023-01-17T22:35:15.195Z,8.75
2023-01-17T22:39:19.270Z,8.77
2023-01-17T22:43:22.066Z,9.45
2023-01-17T22:47:25.163Z,9.20
2023-01-17T22:51:29.839Z,8.98
2023-01-17T22:55:33.897Z,8.40
2023-01-17T22:59:36.682Z,7.32
2023-01-17T23:03:41.236Z,7.03
2023-01-17T23:07:44.378Z,6.63
2023-01-17T23:11:51.955Z,6.90
2023-01-17T23:16:12.651Z,7.18
2023-01-17T23:20:15.518Z,7.15
2023-01-17T23:24:18.242Z,7.10
2023-01-17T23:28:22.481Z,7.43
2023-01-17T23:32:26.189Z,8.10
2023-01-17T23:36:30.330Z,8.40
2023-01-17T23:40:34.534Z,8.18
2023-01-17T23:44:38.912Z,8.68
2023-01-17T23:48:41.812Z,8.60
2023-01-17T23:52:44.536Z,8.75
2023-01-17T23:56:47.301Z,9.95
